sensor_id;sensor_type;location;lat;lon;timestamp;temperature;humidity
10660;DHT22;5378;53.206;13.316;2023-05-10T00:02:21;12.30;99.90
10660;DHT22;5378;53.206;13.316;2023-05-10T00:05:08;12.10;99.90
10660;DHT22;5378;53.206;13.316;2023-05-10T00:07:55;12.20;99.90
10660;DHT22;5378;53.206;13.316;2023-05-10T00:10:42;12.20;99.90
10660;DHT22;5378;53.206;13.316;2023-05-10T00:13:31;12.10;99.90
10660;DHT22;5378;53.206;13.316;2023-05-10T00:16:18;12.00;99.90
10660;DHT22;5378;53.206;13.316;2023-05-10T00:19:05;12.00;99.90
10660;DHT22;5378;53.206;13.316;2023-05-10T00:21:52;12.10;99.90
10660;DHT22;5378;53.206;13.316;2023-05-10T00:24:39;12.10;99.90
10660;DHT22;5378;53.206;13.316;2023-05-10T00:27:26;12.00;99.90
10660;DHT22;5378;53.206;13.316;2023-05-10T00:30:14;12.00;99.90
10660;DHT22;5378;53.206;13.316;2023-05-10T00:33:02;12.00;99.90
10660;DHT22;5378;53.206;13.316;2023-05-10T00:35:49;11.90;99.90
10660;DHT22;5378;53.206;13.316;2023-05-10T00:38:36;11.90;99.90
10660;DHT22;5378;53.206;13.316;2023-05-10T00:41:23;11.90;99.90
10660;DHT22;5378;53.206;13.316;2023-05-10T00:44:11;12.00;99.90
10660;DHT22;5378;53.206;13.316;2023-05-10T00:46:59;11.90;99.90
10660;DHT22;5378;53.206;13.316;2023-05-10T00:49:46;11.80;99.90
10660;DHT22;5378;53.206;13.316;2023-05-10T00:52:33;11.80;99.90
10660;DHT22;5378;53.206;13.316;2023-05-10T00:55:21;11.80;99.90
10660;DHT22;5378;53.206;13.316;2023-05-10T00:58:08;11.80;99.90
10660;DHT22;5378;53.206;13.316;2023-05-10T01:00:55;11.80;99.90
10660;DHT22;5378;53.206;13.316;2023-05-10T01:03:44;11.80;99.90
10660;DHT22;5378;53.206;13.316;2023-05-10T01:06:34;11.80;99.90
10660;DHT22;5378;53.206;13.316;2023-05-10T01:09:21;11.70;99.90
10660;DHT22;5378;53.206;13.316;2023-05-10T01:12:08;11.70;99.90
10660;DHT22;5378;53.206;13.316;2023-05-10T01:14:55;11.60;99.90
10660;DHT22;5378;53.206;13.316;2023-05-10T01:17:44;11.60;99.90
10660;DHT22;5378;53.206;13.316;2023-05-10T01:20:39;11.60;99.90
10660;DHT22;5378;53.206;13.316;2023-05-10T01:23:40;11.70;99.90
10660;DHT22;5378;53.206;13.316;2023-05-10T01:27:02;11.60;99.90
10660;DHT22;5378;53.206;13.316;2023-05-10T01:30:23;11.60;99.90
10660;DHT22;5378;53.206;13.316;2023-05-10T01:33:23;11.50;99.90
10660;DHT22;5378;53.206;13.316;2023-05-10T01:36:19;11.50;99.90
10660;DHT22;5378;53.206;13.316;2023-05-10T01:39:15;11.40;99.90
10660;DHT22;5378;53.206;13.316;2023-05-10T01:42:08;11.50;99.90
10660;DHT22;5378;53.206;13.316;2023-05-10T01:45:00;11.60;99.90
10660;DHT22;5378;53.206;13.316;2023-05-10T01:47:56;11.50;99.90
10660;DHT22;5378;53.206;13.316;2023-05-10T01:50:46;11.40;99.90
10660;DHT22;5378;53.206;13.316;2023-05-10T01:53:37;11.40;99.90
10660;DHT22;5378;53.206;13.316;2023-05-10T01:56:26;11.30;99.90
10660;DHT22;5378;53.206;13.316;2023-05-10T01:59:17;11.20;99.90
10660;DHT22;5378;53.206;13.316;2023-05-10T02:02:06;11.20;99.90
10660;DHT22;5378;53.206;13.316;2023-05-10T02:04:54;11.20;99.90
10660;DHT22;5378;53.206;13.316;2023-05-10T02:07:43;11.20;99.90
10660;DHT22;5378;53.206;13.316;2023-05-10T02:10:32;11.10;99.90
10660;DHT22;5378;53.206;13.316;2023-05-10T02:13:19;11.00;99.90
10660;DHT22;5378;53.206;13.316;2023-05-10T02:16:07;11.00;99.90
10660;DHT22;5378;53.206;13.316;2023-05-10T02:18:56;11.00;99.90
10660;DHT22;5378;53.206;13.316;2023-05-10T02:21:45;11.00;99.90
10660;DHT22;5378;53.206;13.316;2023-05-10T02:24:35;10.90;99.90
10660;DHT22;5378;53.206;13.316;2023-05-10T02:27:24;11.00;99.90
10660;DHT22;5378;53.206;13.316;2023-05-10T02:30:13;10.90;99.90
10660;DHT22;5378;53.206;13.316;2023-05-10T02:33:01;11.00;99.90
10660;DHT22;5378;53.206;13.316;2023-05-10T02:35:50;10.90;99.90
10660;DHT22;5378;53.206;13.316;2023-05-10T02:38:37;10.80;99.90
10660;DHT22;5378;53.206;13.316;2023-05-10T02:41:27;10.80;99.90
10660;DHT22;5378;53.206;13.316;2023-05-10T02:44:18;10.80;99.90
10660;DHT22;5378;53.206;13.316;2023-05-10T02:47:06;10.80;99.90
10660;DHT22;5378;53.206;13.316;2023-05-10T02:49:53;10.70;99.90
10660;DHT22;5378;53.206;13.316;2023-05-10T02:52:42;10.70;99.90
10660;DHT22;5378;53.206;13.316;2023-05-10T02:55:35;10.70;99.90
10660;DHT22;5378;53.206;13.316;2023-05-10T02:58:24;10.70;99.90
10660;DHT22;5378;53.206;13.316;2023-05-10T03:01:12;10.70;99.90
10660;DHT22;5378;53.206;13.316;2023-05-10T03:03:59;10.70;99.90
10660;DHT22;5378;53.206;13.316;2023-05-10T03:06:46;10.60;99.90
10660;DHT22;5378;53.206;13.316;2023-05-10T03:09:34;10.60;99.90
10660;DHT22;5378;53.206;13.316;2023-05-10T03:12:30;10.60;99.90
10660;DHT22;5378;53.206;13.316;2023-05-10T03:15:25;10.70;99.90
10660;DHT22;5378;53.206;13.316;2023-05-10T03:18:18;10.70;99.90
10660;DHT22;5378;53.206;13.316;2023-05-10T03:21:11;10.80;99.90
10660;DHT22;5378;53.206;13.316;2023-05-10T03:24:06;10.80;99.90
10660;DHT22;5378;53.206;13.316;2023-05-10T03:26:56;10.80;99.90
10660;DHT22;5378;53.206;13.316;2023-05-10T03:29:46;10.80;99.90
10660;DHT22;5378;53.206;13.316;2023-05-10T03:32:35;10.70;99.90
10660;DHT22;5378;53.206;13.316;2023-05-10T03:35:23;10.70;99.90
10660;DHT22;5378;53.206;13.316;2023-05-10T03:38:11;10.70;99.90
10660;DHT22;5378;53.206;13.316;2023-05-10T03:40:58;10.70;99.90
10660;DHT22;5378;53.206;13.316;2023-05-10T03:43:45;11.10;99.90
10660;DHT22;5378;53.206;13.316;2023-05-10T03:46:32;11.60;99.90
10660;DHT22;5378;53.206;13.316;2023-05-10T03:49:22;12.00;99.90
10660;DHT22;5378;53.206;13.316;2023-05-10T03:52:09;12.10;99.90
10660;DHT22;5378;53.206;13.316;2023-05-10T03:54:56;12.40;99.90
10660;DHT22;5378;53.206;13.316;2023-05-10T03:57:44;13.20;99.90
10660;DHT22;5378;53.206;13.316;2023-05-10T04:00:31;13.80;99.90
10660;DHT22;5378;53.206;13.316;2023-05-10T04:03:19;14.30;99.90
10660;DHT22;5378;53.206;13.316;2023-05-10T04:06:07;14.90;99.90
10660;DHT22;5378;53.206;13.316;2023-05-10T04:08:57;15.30;99.90
10660;DHT22;5378;53.206;13.316;2023-05-10T04:11:46;15.80;99.90
10660;DHT22;5378;53.206;13.316;2023-05-10T04:14:33;16.20;99.90
10660;DHT22;5378;53.206;13.316;2023-05-10T04:17:20;16.70;99.80
10660;DHT22;5378;53.206;13.316;2023-05-10T04:20:07;17.30;97.60
10660;DHT22;5378;53.206;13.316;2023-05-10T04:22:56;17.70;96.20
10660;DHT22;5378;53.206;13.316;2023-05-10T04:25:43;17.20;96.50
10660;DHT22;5378;53.206;13.316;2023-05-10T04:28:30;17.20;96.50
10660;DHT22;5378;53.206;13.316;2023-05-10T04:31:17;17.20;95.80
10660;DHT22;5378;53.206;13.316;2023-05-10T04:34:04;17.50;95.80
10660;DHT22;5378;53.206;13.316;2023-05-10T04:36:51;18.10;94.40
10660;DHT22;5378;53.206;13.316;2023-05-10T04:39:40;18.50;94.60
10660;DHT22;5378;53.206;13.316;2023-05-10T04:42:27;18.40;92.60
10660;DHT22;5378;53.206;13.316;2023-05-10T04:45:14;18.00;93.50
10660;DHT22;5378;53.206;13.316;2023-05-10T04:48:01;18.10;93.00
10660;DHT22;5378;53.206;13.316;2023-05-10T04:50:48;18.40;93.00
10660;DHT22;5378;53.206;13.316;2023-05-10T04:53:35;18.70;92.60
10660;DHT22;5378;53.206;13.316;2023-05-10T04:56:23;18.90;91.70
10660;DHT22;5378;53.206;13.316;2023-05-10T04:59:10;19.60;91.10
10660;DHT22;5378;53.206;13.316;2023-05-10T05:01:57;20.10;90.30
10660;DHT22;5378;53.206;13.316;2023-05-10T05:04:44;19.60;90.40
10660;DHT22;5378;53.206;13.316;2023-05-10T05:07:31;19.90;88.20
10660;DHT22;5378;53.206;13.316;2023-05-10T05:10:18;19.50;88.50
10660;DHT22;5378;53.206;13.316;2023-05-10T05:13:06;19.90;87.90
10660;DHT22;5378;53.206;13.316;2023-05-10T05:15:53;19.50;88.50
10660;DHT22;5378;53.206;13.316;2023-05-10T05:18:41;20.00;86.40
10660;DHT22;5378;53.206;13.316;2023-05-10T05:21:28;20.80;85.20
10660;DHT22;5378;53.206;13.316;2023-05-10T05:24:14;20.80;84.50
10660;DHT22;5378;53.206;13.316;2023-05-10T05:27:02;20.90;84.50
10660;DHT22;5378;53.206;13.316;2023-05-10T05:29:52;20.80;84.00
10660;DHT22;5378;53.206;13.316;2023-05-10T05:32:39;20.80;82.60
10660;DHT22;5378;53.206;13.316;2023-05-10T05:35:26;21.20;83.40
10660;DHT22;5378;53.206;13.316;2023-05-10T05:38:13;21.60;83.20
10660;DHT22;5378;53.206;13.316;2023-05-10T05:41:00;21.50;80.70
10660;DHT22;5378;53.206;13.316;2023-05-10T05:43:47;21.50;81.80
10660;DHT22;5378;53.206;13.316;2023-05-10T05:46:35;21.70;80.10
10660;DHT22;5378;53.206;13.316;2023-05-10T05:49:23;22.30;79.10
10660;DHT22;5378;53.206;13.316;2023-05-10T05:52:10;22.40;77.80
10660;DHT22;5378;53.206;13.316;2023-05-10T05:54:57;22.70;77.50
10660;DHT22;5378;53.206;13.316;2023-05-10T05:57:44;22.20;77.70
10660;DHT22;5378;53.206;13.316;2023-05-10T06:00:31;22.70;78.50
10660;DHT22;5378;53.206;13.316;2023-05-10T06:03:19;23.30;75.70
10660;DHT22;5378;53.206;13.316;2023-05-10T06:06:06;23.20;75.40
10660;DHT22;5378;53.206;13.316;2023-05-10T06:08:54;23.30;76.30
10660;DHT22;5378;53.206;13.316;2023-05-10T06:11:41;23.30;75.00
10660;DHT22;5378;53.206;13.316;2023-05-10T06:14:28;23.40;75.90
10660;DHT22;5378;53.206;13.316;2023-05-10T06:17:15;23.50;74.50
10660;DHT22;5378;53.206;13.316;2023-05-10T06:20:04;23.50;74.80
10660;DHT22;5378;53.206;13.316;2023-05-10T06:22:51;23.40;74.40
10660;DHT22;5378;53.206;13.316;2023-05-10T06:25:38;23.50;73.60
10660;DHT22;5378;53.206;13.316;2023-05-10T06:28:26;23.40;72.80
10660;DHT22;5378;53.206;13.316;2023-05-10T06:31:13;23.10;73.40
10660;DHT22;5378;53.206;13.316;2023-05-10T06:34:01;23.30;73.00
10660;DHT22;5378;53.206;13.316;2023-05-10T06:36:49;23.40;73.10
10660;DHT22;5378;53.206;13.316;2023-05-10T06:39:37;23.10;71.70
10660;DHT22;5378;53.206;13.316;2023-05-10T06:42:24;23.00;73.10
10660;DHT22;5378;53.206;13.316;2023-05-10T06:45:13;23.60;72.00
10660;DHT22;5378;53.206;13.316;2023-05-10T06:48:01;24.00;72.00
10660;DHT22;5378;53.206;13.316;2023-05-10T06:50:48;24.10;71.60
10660;DHT22;5378;53.206;13.316;2023-05-10T06:53:36;23.80;72.70
10660;DHT22;5378;53.206;13.316;2023-05-10T06:56:23;23.80;72.40
10660;DHT22;5378;53.206;13.316;2023-05-10T06:59:11;23.60;71.00
10660;DHT22;5378;53.206;13.316;2023-05-10T07:01:59;23.80;71.40
10660;DHT22;5378;53.206;13.316;2023-05-10T07:04:48;23.60;72.80
10660;DHT22;5378;53.206;13.316;2023-05-10T07:07:35;23.70;72.90
10660;DHT22;5378;53.206;13.316;2023-05-10T07:10:23;24.20;71.80
10660;DHT22;5378;53.206;13.316;2023-05-10T07:13:10;24.10;71.40
10660;DHT22;5378;53.206;13.316;2023-05-10T07:15:57;24.30;70.50
10660;DHT22;5378;53.206;13.316;2023-05-10T07:18:44;23.80;71.90
10660;DHT22;5378;53.206;13.316;2023-05-10T07:21:31;24.00;70.40
10660;DHT22;5378;53.206;13.316;2023-05-10T07:24:18;24.00;70.20
10660;DHT22;5378;53.206;13.316;2023-05-10T07:27:06;24.10;70.00
10660;DHT22;5378;53.206;13.316;2023-05-10T07:29:55;23.80;71.00
10660;DHT22;5378;53.206;13.316;2023-05-10T07:32:42;24.00;72.50
10660;DHT22;5378;53.206;13.316;2023-05-10T07:35:29;24.30;71.00
10660;DHT22;5378;53.206;13.316;2023-05-10T07:38:16;24.40;70.40
10660;DHT22;5378;53.206;13.316;2023-05-10T07:41:03;24.40;71.90
10660;DHT22;5378;53.206;13.316;2023-05-10T07:43:51;25.10;70.20
10660;DHT22;5378;53.206;13.316;2023-05-10T07:46:38;25.00;69.90
10660;DHT22;5378;53.206;13.316;2023-05-10T07:49:26;25.70;69.20
10660;DHT22;5378;53.206;13.316;2023-05-10T07:52:13;25.80;68.70
10660;DHT22;5378;53.206;13.316;2023-05-10T07:55:01;24.90;69.50
10660;DHT22;5378;53.206;13.316;2023-05-10T07:57:48;24.50;70.30
10660;DHT22;5378;53.206;13.316;2023-05-10T08:00:37;24.80;69.80
10660;DHT22;5378;53.206;13.316;2023-05-10T08:03:25;24.70;70.20
10660;DHT22;5378;53.206;13.316;2023-05-10T08:06:12;24.60;69.70
10660;DHT22;5378;53.206;13.316;2023-05-10T08:08:59;24.20;70.30
10660;DHT22;5378;53.206;13.316;2023-05-10T08:11:46;23.60;71.20
10660;DHT22;5378;53.206;13.316;2023-05-10T08:14:33;23.90;70.80
10660;DHT22;5378;53.206;13.316;2023-05-10T08:17:23;24.00;71.20
10660;DHT22;5378;53.206;13.316;2023-05-10T08:20:11;24.20;70.60
10660;DHT22;5378;53.206;13.316;2023-05-10T08:23:02;23.80;71.40
10660;DHT22;5378;53.206;13.316;2023-05-10T08:25:49;24.40;70.30
10660;DHT22;5378;53.206;13.316;2023-05-10T08:28:36;24.40;70.90
10660;DHT22;5378;53.206;13.316;2023-05-10T08:31:23;24.70;70.70
10660;DHT22;5378;53.206;13.316;2023-05-10T08:34:11;25.30;70.30
10660;DHT22;5378;53.206;13.316;2023-05-10T08:36:58;25.00;70.00
10660;DHT22;5378;53.206;13.316;2023-05-10T08:39:45;24.70;70.00
10660;DHT22;5378;53.206;13.316;2023-05-10T08:42:36;24.50;69.90
10660;DHT22;5378;53.206;13.316;2023-05-10T08:45:27;24.00;70.10
10660;DHT22;5378;53.206;13.316;2023-05-10T08:48:17;23.90;72.10
10660;DHT22;5378;53.206;13.316;2023-05-10T08:51:07;24.00;72.00
10660;DHT22;5378;53.206;13.316;2023-05-10T08:53:55;23.90;71.10
10660;DHT22;5378;53.206;13.316;2023-05-10T08:56:43;24.00;72.30
10660;DHT22;5378;53.206;13.316;2023-05-10T08:59:30;24.50;71.80
10660;DHT22;5378;53.206;13.316;2023-05-10T09:02:20;25.00;70.00
10660;DHT22;5378;53.206;13.316;2023-05-10T09:05:08;24.30;71.70
10660;DHT22;5378;53.206;13.316;2023-05-10T09:07:57;24.20;71.80
10660;DHT22;5378;53.206;13.316;2023-05-10T09:10:46;23.50;72.30
10660;DHT22;5378;53.206;13.316;2023-05-10T09:13:35;22.90;72.90
10660;DHT22;5378;53.206;13.316;2023-05-10T09:16:23;22.00;75.80
10660;DHT22;5378;53.206;13.316;2023-05-10T09:19:11;21.60;75.80
10660;DHT22;5378;53.206;13.316;2023-05-10T09:21:58;20.90;78.30
10660;DHT22;5378;53.206;13.316;2023-05-10T09:24:47;20.70;78.60
10660;DHT22;5378;53.206;13.316;2023-05-10T09:27:35;20.50;79.00
10660;DHT22;5378;53.206;13.316;2023-05-10T09:30:27;20.10;80.10
10660;DHT22;5378;53.206;13.316;2023-05-10T09:33:13;20.00;79.10
10660;DHT22;5378;53.206;13.316;2023-05-10T09:36:07;20.00;80.20
10660;DHT22;5378;53.206;13.316;2023-05-10T09:38:54;20.10;80.60
10660;DHT22;5378;53.206;13.316;2023-05-10T09:41:43;20.10;82.70
10660;DHT22;5378;53.206;13.316;2023-05-10T09:44:31;20.20;80.80
10660;DHT22;5378;53.206;13.316;2023-05-10T09:47:18;20.20;81.00
10660;DHT22;5378;53.206;13.316;2023-05-10T09:50:06;20.30;82.60
10660;DHT22;5378;53.206;13.316;2023-05-10T09:52:55;20.40;82.70
10660;DHT22;5378;53.206;13.316;2023-05-10T09:55:45;20.50;80.10
10660;DHT22;5378;53.206;13.316;2023-05-10T09:58:36;20.40;81.90
10660;DHT22;5378;53.206;13.316;2023-05-10T10:01:25;20.10;81.70
10660;DHT22;5378;53.206;13.316;2023-05-10T10:04:13;20.00;82.80
10660;DHT22;5378;53.206;13.316;2023-05-10T10:07:04;20.30;82.40
10660;DHT22;5378;53.206;13.316;2023-05-10T10:09:53;20.20;81.70
10660;DHT22;5378;53.206;13.316;2023-05-10T10:12:41;20.10;82.40
10660;DHT22;5378;53.206;13.316;2023-05-10T10:15:30;20.10;83.20
10660;DHT22;5378;53.206;13.316;2023-05-10T10:18:17;20.10;84.10
10660;DHT22;5378;53.206;13.316;2023-05-10T10:21:09;20.10;81.50
10660;DHT22;5378;53.206;13.316;2023-05-10T10:23:57;20.10;82.40
10660;DHT22;5378;53.206;13.316;2023-05-10T10:26:44;19.90;82.90
10660;DHT22;5378;53.206;13.316;2023-05-10T10:29:39;20.00;83.80
10660;DHT22;5378;53.206;13.316;2023-05-10T10:32:37;20.30;83.00
10660;DHT22;5378;53.206;13.316;2023-05-10T10:35:29;20.50;82.20
10660;DHT22;5378;53.206;13.316;2023-05-10T10:38:17;20.50;82.40
10660;DHT22;5378;53.206;13.316;2023-05-10T10:41:09;20.50;81.50
10660;DHT22;5378;53.206;13.316;2023-05-10T10:44:26;20.40;82.40
10660;DHT22;5378;53.206;13.316;2023-05-10T10:47:23;20.60;83.90
10660;DHT22;5378;53.206;13.316;2023-05-10T10:50:13;20.60;82.30
10660;DHT22;5378;53.206;13.316;2023-05-10T10:53:10;20.60;83.00
10660;DHT22;5378;53.206;13.316;2023-05-10T10:56:05;20.80;84.30
10660;DHT22;5378;53.206;13.316;2023-05-10T10:58:53;21.30;82.30
10660;DHT22;5378;53.206;13.316;2023-05-10T11:01:51;21.30;81.70
10660;DHT22;5378;53.206;13.316;2023-05-10T11:04:43;21.50;79.60
10660;DHT22;5378;53.206;13.316;2023-05-10T11:07:33;21.50;80.30
10660;DHT22;5378;53.206;13.316;2023-05-10T11:10:20;21.70;80.80
10660;DHT22;5378;53.206;13.316;2023-05-10T11:13:09;22.10;80.10
10660;DHT22;5378;53.206;13.316;2023-05-10T11:15:57;21.70;79.00
10660;DHT22;5378;53.206;13.316;2023-05-10T11:18:57;21.50;79.70
10660;DHT22;5378;53.206;13.316;2023-05-10T11:21:46;21.20;80.60
10660;DHT22;5378;53.206;13.316;2023-05-10T11:24:35;21.00;79.80
10660;DHT22;5378;53.206;13.316;2023-05-10T11:27:22;21.10;79.90
10660;DHT22;5378;53.206;13.316;2023-05-10T11:30:10;21.40;80.10
10660;DHT22;5378;53.206;13.316;2023-05-10T11:32:57;21.50;79.30
10660;DHT22;5378;53.206;13.316;2023-05-10T11:35:45;21.60;77.60
10660;DHT22;5378;53.206;13.316;2023-05-10T11:38:32;21.90;77.10
10660;DHT22;5378;53.206;13.316;2023-05-10T11:41:22;22.00;77.40
10660;DHT22;5378;53.206;13.316;2023-05-10T11:44:09;21.80;77.90
10660;DHT22;5378;53.206;13.316;2023-05-10T11:46:58;21.70;79.10
10660;DHT22;5378;53.206;13.316;2023-05-10T11:49:48;21.60;79.80
10660;DHT22;5378;53.206;13.316;2023-05-10T11:52:36;21.70;77.90
10660;DHT22;5378;53.206;13.316;2023-05-10T11:55:24;21.80;77.60
10660;DHT22;5378;53.206;13.316;2023-05-10T11:58:13;22.00;78.30
10660;DHT22;5378;53.206;13.316;2023-05-10T12:01:00;22.20;77.60
10660;DHT22;5378;53.206;13.316;2023-05-10T12:03:48;22.10;76.50
10660;DHT22;5378;53.206;13.316;2023-05-10T12:06:39;22.30;76.50
10660;DHT22;5378;53.206;13.316;2023-05-10T12:09:27;22.50;78.10
10660;DHT22;5378;53.206;13.316;2023-05-10T12:12:20;22.70;77.00
10660;DHT22;5378;53.206;13.316;2023-05-10T12:15:12;22.50;76.90
10660;DHT22;5378;53.206;13.316;2023-05-10T12:18:03;22.50;78.30
10660;DHT22;5378;53.206;13.316;2023-05-10T12:20:51;22.50;77.60
10660;DHT22;5378;53.206;13.316;2023-05-10T12:23:39;22.30;77.60
10660;DHT22;5378;53.206;13.316;2023-05-10T12:26:28;22.30;78.00
10660;DHT22;5378;53.206;13.316;2023-05-10T12:29:17;22.50;78.30
10660;DHT22;5378;53.206;13.316;2023-05-10T12:32:06;22.80;76.40
10660;DHT22;5378;53.206;13.316;2023-05-10T12:34:53;23.00;77.30
10660;DHT22;5378;53.206;13.316;2023-05-10T12:37:42;22.80;76.20
10660;DHT22;5378;53.206;13.316;2023-05-10T12:40:29;22.50;75.50
10660;DHT22;5378;53.206;13.316;2023-05-10T12:43:16;22.30;76.50
10660;DHT22;5378;53.206;13.316;2023-05-10T12:46:07;22.30;78.10
10660;DHT22;5378;53.206;13.316;2023-05-10T12:48:56;22.20;77.50
10660;DHT22;5378;53.206;13.316;2023-05-10T12:51:51;22.10;77.90
10660;DHT22;5378;53.206;13.316;2023-05-10T12:54:38;22.20;78.00
10660;DHT22;5378;53.206;13.316;2023-05-10T12:57:26;22.10;77.30
10660;DHT22;5378;53.206;13.316;2023-05-10T13:00:14;21.80;76.60
10660;DHT22;5378;53.206;13.316;2023-05-10T13:03:01;21.80;76.70
10660;DHT22;5378;53.206;13.316;2023-05-10T13:05:50;21.90;77.50
10660;DHT22;5378;53.206;13.316;2023-05-10T13:08:37;21.80;78.30
10660;DHT22;5378;53.206;13.316;2023-05-10T13:11:24;21.90;79.30
10660;DHT22;5378;53.206;13.316;2023-05-10T13:14:11;22.00;78.60
10660;DHT22;5378;53.206;13.316;2023-05-10T13:16:59;22.20;78.70
10660;DHT22;5378;53.206;13.316;2023-05-10T13:19:46;22.30;78.50
10660;DHT22;5378;53.206;13.316;2023-05-10T13:22:34;22.40;79.30
10660;DHT22;5378;53.206;13.316;2023-05-10T13:25:24;22.60;78.90
10660;DHT22;5378;53.206;13.316;2023-05-10T13:28:11;22.50;78.10
10660;DHT22;5378;53.206;13.316;2023-05-10T13:30:59;22.30;78.30
10660;DHT22;5378;53.206;13.316;2023-05-10T13:33:46;22.20;78.60
10660;DHT22;5378;53.206;13.316;2023-05-10T13:36:33;22.00;79.40
10660;DHT22;5378;53.206;13.316;2023-05-10T13:39:21;22.10;79.40
10660;DHT22;5378;53.206;13.316;2023-05-10T13:42:08;22.40;79.00
10660;DHT22;5378;53.206;13.316;2023-05-10T13:44:55;22.60;78.50
10660;DHT22;5378;53.206;13.316;2023-05-10T13:47:42;22.60;79.10
10660;DHT22;5378;53.206;13.316;2023-05-10T13:50:30;22.70;78.20
10660;DHT22;5378;53.206;13.316;2023-05-10T13:53:17;22.50;78.00
10660;DHT22;5378;53.206;13.316;2023-05-10T13:56:06;22.50;78.60
10660;DHT22;5378;53.206;13.316;2023-05-10T13:58:53;22.50;78.00
10660;DHT22;5378;53.206;13.316;2023-05-10T14:01:40;22.60;76.80
10660;DHT22;5378;53.206;13.316;2023-05-10T14:04:27;22.60;77.40
10660;DHT22;5378;53.206;13.316;2023-05-10T14:07:15;22.50;77.80
10660;DHT22;5378;53.206;13.316;2023-05-10T14:10:02;22.50;77.80
10660;DHT22;5378;53.206;13.316;2023-05-10T14:12:51;22.50;77.80
10660;DHT22;5378;53.206;13.316;2023-05-10T14:15:37;22.50;76.40
10660;DHT22;5378;53.206;13.316;2023-05-10T14:18:25;22.40;77.70
10660;DHT22;5378;53.206;13.316;2023-05-10T14:21:12;22.30;76.00
10660;DHT22;5378;53.206;13.316;2023-05-10T14:23:59;22.20;76.70
10660;DHT22;5378;53.206;13.316;2023-05-10T14:26:46;22.10;77.50
10660;DHT22;5378;53.206;13.316;2023-05-10T14:29:34;21.90;77.30
10660;DHT22;5378;53.206;13.316;2023-05-10T14:32:21;22.10;78.70
10660;DHT22;5378;53.206;13.316;2023-05-10T14:35:08;22.30;79.20
10660;DHT22;5378;53.206;13.316;2023-05-10T14:37:57;22.40;77.70
10660;DHT22;5378;53.206;13.316;2023-05-10T14:40:44;22.70;78.20
10660;DHT22;5378;53.206;13.316;2023-05-10T14:43:31;22.90;76.30
10660;DHT22;5378;53.206;13.316;2023-05-10T14:46:19;22.80;76.50
10660;DHT22;5378;53.206;13.316;2023-05-10T14:49:06;22.60;77.30
10660;DHT22;5378;53.206;13.316;2023-05-10T14:51:53;22.40;76.70
10660;DHT22;5378;53.206;13.316;2023-05-10T14:54:40;22.40;77.20
10660;DHT22;5378;53.206;13.316;2023-05-10T14:57:27;22.40;78.20
10660;DHT22;5378;53.206;13.316;2023-05-10T15:00:16;22.40;76.40
10660;DHT22;5378;53.206;13.316;2023-05-10T15:03:06;22.40;77.70
10660;DHT22;5378;53.206;13.316;2023-05-10T15:05:53;22.50;76.00
10660;DHT22;5378;53.206;13.316;2023-05-10T15:08:41;22.90;76.90
10660;DHT22;5378;53.206;13.316;2023-05-10T15:11:29;23.00;75.70
10660;DHT22;5378;53.206;13.316;2023-05-10T15:14:16;23.00;75.40
10660;DHT22;5378;53.206;13.316;2023-05-10T15:17:03;22.90;77.50
10660;DHT22;5378;53.206;13.316;2023-05-10T15:19:52;22.90;75.10
10660;DHT22;5378;53.206;13.316;2023-05-10T15:22:39;23.00;76.10
10660;DHT22;5378;53.206;13.316;2023-05-10T15:25:26;23.10;75.70
10660;DHT22;5378;53.206;13.316;2023-05-10T15:28:14;22.90;75.30
10660;DHT22;5378;53.206;13.316;2023-05-10T15:31:01;22.60;76.20
10660;DHT22;5378;53.206;13.316;2023-05-10T15:33:49;22.60;75.50
10660;DHT22;5378;53.206;13.316;2023-05-10T15:36:37;22.60;74.90
10660;DHT22;5378;53.206;13.316;2023-05-10T15:39:24;22.60;75.40
10660;DHT22;5378;53.206;13.316;2023-05-10T15:42:12;22.60;77.10
10660;DHT22;5378;53.206;13.316;2023-05-10T15:44:59;22.70;76.90
10660;DHT22;5378;53.206;13.316;2023-05-10T15:47:47;22.90;76.30
10660;DHT22;5378;53.206;13.316;2023-05-10T15:50:34;22.90;75.50
10660;DHT22;5378;53.206;13.316;2023-05-10T15:53:23;22.60;76.10
10660;DHT22;5378;53.206;13.316;2023-05-10T15:56:10;22.40;75.70
10660;DHT22;5378;53.206;13.316;2023-05-10T15:58:58;22.30;77.70
10660;DHT22;5378;53.206;13.316;2023-05-10T16:01:44;22.10;79.40
10660;DHT22;5378;53.206;13.316;2023-05-10T16:04:31;21.80;79.40
10660;DHT22;5378;53.206;13.316;2023-05-10T16:07:18;21.70;78.50
10660;DHT22;5378;53.206;13.316;2023-05-10T16:10:08;21.70;79.40
10660;DHT22;5378;53.206;13.316;2023-05-10T16:12:55;21.70;79.10
10660;DHT22;5378;53.206;13.316;2023-05-10T16:15:43;21.80;78.40
10660;DHT22;5378;53.206;13.316;2023-05-10T16:18:30;21.90;76.60
10660;DHT22;5378;53.206;13.316;2023-05-10T16:21:17;22.20;78.00
10660;DHT22;5378;53.206;13.316;2023-05-10T16:24:04;22.20;76.40
10660;DHT22;5378;53.206;13.316;2023-05-10T16:26:52;22.30;78.40
10660;DHT22;5378;53.206;13.316;2023-05-10T16:29:39;22.30;78.20
10660;DHT22;5378;53.206;13.316;2023-05-10T16:32:26;22.30;77.70
10660;DHT22;5378;53.206;13.316;2023-05-10T16:35:13;22.50;76.10
10660;DHT22;5378;53.206;13.316;2023-05-10T16:38:00;22.60;77.20
10660;DHT22;5378;53.206;13.316;2023-05-10T16:40:48;22.70;77.40
10660;DHT22;5378;53.206;13.316;2023-05-10T16:43:37;22.80;78.00
10660;DHT22;5378;53.206;13.316;2023-05-10T16:46:24;22.80;77.10
10660;DHT22;5378;53.206;13.316;2023-05-10T16:49:11;22.70;77.60
10660;DHT22;5378;53.206;13.316;2023-05-10T16:51:58;22.50;78.40
10660;DHT22;5378;53.206;13.316;2023-05-10T16:54:46;22.20;78.30
10660;DHT22;5378;53.206;13.316;2023-05-10T16:57:33;21.80;79.50
10660;DHT22;5378;53.206;13.316;2023-05-10T17:00:22;21.60;80.10
10660;DHT22;5378;53.206;13.316;2023-05-10T17:03:09;21.50;81.30
10660;DHT22;5378;53.206;13.316;2023-05-10T17:05:56;21.40;81.50
10660;DHT22;5378;53.206;13.316;2023-05-10T17:08:44;21.40;81.40
10660;DHT22;5378;53.206;13.316;2023-05-10T17:11:31;21.30;81.50
10660;DHT22;5378;53.206;13.316;2023-05-10T17:14:18;21.30;81.80
10660;DHT22;5378;53.206;13.316;2023-05-10T17:17:07;21.30;80.90
10660;DHT22;5378;53.206;13.316;2023-05-10T17:19:54;21.30;81.20
10660;DHT22;5378;53.206;13.316;2023-05-10T17:22:41;21.30;81.70
10660;DHT22;5378;53.206;13.316;2023-05-10T17:25:28;21.30;82.50
10660;DHT22;5378;53.206;13.316;2023-05-10T17:28:15;21.30;82.70
10660;DHT22;5378;53.206;13.316;2023-05-10T17:31:02;21.20;82.40
10660;DHT22;5378;53.206;13.316;2023-05-10T17:33:51;21.20;83.50
10660;DHT22;5378;53.206;13.316;2023-05-10T17:36:38;21.10;84.30
10660;DHT22;5378;53.206;13.316;2023-05-10T17:39:25;21.00;85.30
10660;DHT22;5378;53.206;13.316;2023-05-10T17:42:12;20.80;84.00
10660;DHT22;5378;53.206;13.316;2023-05-10T17:45:02;20.80;84.00